Terminal Aerodrome Forecast
Issued by NWS

Home | Current Version | Previous Version | Text Only | Print | Product List | Glossary On
Versions: 1 2 3 4 5 6 7 8 9 10 11 12 13 14 15 16 17
818
FTUS43 KDTX 301127
TAFMBS
TAF
KMBS 301127Z 3012/0112 04005KT P6SM FEW045
     FM301500 07012KT P6SM BKN200
     FM010100 06011KT 6SM -RA BKN050 OVC080
     FM010200 08012KT 4SM -RA BR OVC025=

USA.gov is the U.S. government's official web portal to all federal, state and local government web resources and services.